createdAt,value
2019-02-27T00:00:51.047Z,6.43
2019-02-27T00:03:20.401Z,6.47
2019-02-27T00:05:49.619Z,5.10
2019-02-27T00:08:18.798Z,7.80
2019-02-27T00:10:48.005Z,6.17
2019-02-27T00:13:17.205Z,7.20
2019-02-27T00:15:46.393Z,7.13
2019-02-27T00:18:15.593Z,6.27
2019-02-27T00:20:44.799Z,4.93
2019-02-27T00:23:13.985Z,5.33
2019-02-27T00:25:43.191Z,5.50
2019-02-27T00:28:12.364Z,5.13
2019-02-27T00:30:41.633Z,5.73
2019-02-27T00:33:10.817Z,5.90
2019-02-27T00:35:40.027Z,5.73
2019-02-27T00:38:09.213Z,6.90
2019-02-27T00:40:39.382Z,4.77
2019-02-27T00:43:08.671Z,6.87
2019-02-27T00:45:40.137Z,6.60
2019-02-27T00:48:08.831Z,5.23
2019-02-27T00:50:39.201Z,7.60
2019-02-27T00:53:08.832Z,7.23
2019-02-27T00:55:39.367Z,6.37
2019-02-27T00:58:08.814Z,5.73
2019-02-27T01:00:39.363Z,7.53
2019-02-27T01:03:08.932Z,7.43
2019-02-27T01:05:40.976Z,6.67
2019-02-27T01:08:09.021Z,7.50
2019-02-27T01:10:38.200Z,7.33
2019-02-27T01:13:07.390Z,7.00
2019-02-27T01:15:36.568Z,7.10
2019-02-27T01:18:05.768Z,6.93
2019-02-27T01:20:34.938Z,6.53
2019-02-27T01:23:04.164Z,6.83
2019-02-27T01:25:33.334Z,5.23
2019-02-27T01:28:02.534Z,7.07
2019-02-27T01:30:31.756Z,8.13
2019-02-27T01:33:03.951Z,9.57
2019-02-27T01:35:31.849Z,7.80
2019-02-27T01:38:05.078Z,5.97
2019-02-27T01:40:31.927Z,8.33
2019-02-27T01:43:05.500Z,6.00
2019-02-27T01:45:32.053Z,7.67
2019-02-27T01:48:01.279Z,8.23
2019-02-27T01:50:32.876Z,8.47
2019-02-27T01:53:02.084Z,7.50
2019-02-27T01:55:31.266Z,7.97
2019-02-27T01:58:00.467Z,8.60
2019-02-27T02:00:29.633Z,8.67
2019-02-27T02:02:58.833Z,12.40
2019-02-27T02:05:28.018Z,7.50
2019-02-27T02:07:57.207Z,7.13
2019-02-27T02:10:28.298Z,9.57
2019-02-27T02:13:09.341Z,9.47
2019-02-27T02:16:00.881Z,7.10
2019-02-27T02:18:36.794Z,11.03
2019-02-27T02:21:21.153Z,7.60
2019-02-27T02:23:59.773Z,6.47
2019-02-27T02:26:55.235Z,7.23
2019-02-27T02:29:53.169Z,6.70
2019-02-27T02:32:28.660Z,7.07
2019-02-27T02:35:33.937Z,7.90
2019-02-27T02:38:17.554Z,9.50
2019-02-27T02:41:11.067Z,10.30
2019-02-27T02:43:55.350Z,6.10
2019-02-27T02:46:27.783Z,7.53
2019-02-27T02:49:11.831Z,8.20
2019-02-27T02:51:50.097Z,8.00
2019-02-27T02:54:41.235Z,8.33
2019-02-27T02:57:37.087Z,7.70
2019-02-27T03:00:39.097Z,8.30
2019-02-27T03:03:18.063Z,7.67
2019-02-27T03:06:13.553Z,7.23
2019-02-27T03:09:16.417Z,8.17
2019-02-27T03:12:07.265Z,7.33
2019-02-27T03:14:57.409Z,7.33
2019-02-27T03:17:46.430Z,8.07
2019-02-27T03:20:39.324Z,10.43
2019-02-27T03:23:32.854Z,9.07
2019-02-27T03:26:07.856Z,9.70
2019-02-27T03:29:06.163Z,7.87
2019-02-27T03:31:44.467Z,7.60
2019-02-27T03:34:25.476Z,8.20
2019-02-27T03:37:13.128Z,8.57
2019-02-27T03:39:55.716Z,7.87
2019-02-27T03:42:36.386Z,8.60
2019-02-27T03:45:23.939Z,8.17
2019-02-27T03:47:56.366Z,9.73
2019-02-27T03:50:34.689Z,8.07
2019-02-27T03:53:26.701Z,7.40
2019-02-27T03:56:08.760Z,8.27
2019-02-27T03:58:45.126Z,8.20
2019-02-27T04:01:34.985Z,8.70
2019-02-27T04:04:13.575Z,9.53
2019-02-27T04:07:04.878Z,10.87
2019-02-27T04:09:34.100Z,9.03
2019-02-27T04:12:03.273Z,11.13
2019-02-27T04:14:40.432Z,8.10
2019-02-27T04:17:07.104Z,8.73
2019-02-27T04:19:39.234Z,10.10
2019-02-27T04:22:06.634Z,10.73
2019-02-27T04:24:35.822Z,9.93
2019-02-27T04:27:05.104Z,11.13
2019-02-27T04:29:34.298Z,9.40
2019-02-27T04:32:03.508Z,9.17
2019-02-27T04:34:33.325Z,9.17
2019-02-27T04:37:02.961Z,10.33
2019-02-27T04:39:32.158Z,9.90
2019-02-27T04:42:01.348Z,10.67
2019-02-27T04:44:30.543Z,12.00
2019-02-27T04:46:59.741Z,10.80
2019-02-27T04:49:28.927Z,11.57
2019-02-27T04:51:58.201Z,11.20
2019-02-27T04:54:27.381Z,9.07
2019-02-27T04:56:57.614Z,9.43
2019-02-27T04:59:27.351Z,10.30
2019-02-27T05:01:56.551Z,10.67
2019-02-27T05:04:25.734Z,11.30
2019-02-27T05:06:55.006Z,11.10
2019-02-27T05:09:24.189Z,10.07
2019-02-27T05:11:53.422Z,9.97
2019-02-27T05:14:24.838Z,9.87
2019-02-27T05:16:53.491Z,10.60
2019-02-27T05:19:22.684Z,11.97
2019-02-27T05:21:52.463Z,11.50
2019-02-27T05:24:22.352Z,11.40
2019-02-27T05:26:51.546Z,10.50
2019-02-27T05:29:20.771Z,11.17
2019-02-27T05:31:50.124Z,10.53
2019-02-27T05:34:20.856Z,11.77
2019-02-27T05:36:50.080Z,10.20
2019-02-27T05:39:19.292Z,12.07
2019-02-27T05:41:48.472Z,13.43
2019-02-27T05:44:21.427Z,12.13
2019-02-27T05:46:48.567Z,13.27
2019-02-27T05:49:17.772Z,10.37
2019-02-27T05:51:46.964Z,13.43
2019-02-27T05:54:16.171Z,10.10
2019-02-27T05:56:47.155Z,10.80
2019-02-27T05:59:16.270Z,10.23
2019-02-27T06:01:45.450Z,11.30
2019-02-27T06:04:14.654Z,10.63
2019-02-27T06:06:45.662Z,9.90
2019-02-27T06:09:14.824Z,10.40
2019-02-27T06:11:44.013Z,12.43
2019-02-27T06:14:13.225Z,11.67
2019-02-27T06:16:42.401Z,14.10
2019-02-27T06:19:11.610Z,12.70
2019-02-27T06:21:40.801Z,15.17
2019-02-27T06:24:12.530Z,13.40
2019-02-27T06:26:40.878Z,15.53
2019-02-27T06:29:10.133Z,11.87
2019-02-27T06:31:39.612Z,13.03
2019-02-27T06:34:08.972Z,14.03
2019-02-27T06:36:42.041Z,12.37
2019-02-27T06:39:09.255Z,11.57
2019-02-27T06:41:39.854Z,13.40
2019-02-27T06:44:09.231Z,13.80
2019-02-27T06:46:38.429Z,14.30
2019-02-27T06:49:07.708Z,13.10
2019-02-27T06:51:37.069Z,11.93
2019-02-27T06:54:06.281Z,11.90
2019-02-27T06:56:35.467Z,13.10
2019-02-27T06:59:04.661Z,13.70
2019-02-27T07:01:33.851Z,11.93
2019-02-27T07:04:04.762Z,14.90
2019-02-27T07:06:33.949Z,14.03
2019-02-27T07:09:03.156Z,13.67
2019-02-27T07:11:32.345Z,15.63
2019-02-27T07:14:01.610Z,11.40
2019-02-27T07:16:30.892Z,12.30
2019-02-27T07:19:00.079Z,13.43
2019-02-27T07:21:32.417Z,13.70
2019-02-27T07:24:00.156Z,12.20
2019-02-27T07:26:29.332Z,13.33
2019-02-27T07:28:58.541Z,12.10
2019-02-27T07:31:27.730Z,11.43
2019-02-27T07:33:57.037Z,12.20
2019-02-27T07:36:26.216Z,10.43
2019-02-27T07:38:57.477Z,11.83
2019-02-27T07:41:26.319Z,12.67
2019-02-27T07:43:55.529Z,13.13
2019-02-27T07:46:24.712Z,12.57
2019-02-27T07:48:56.317Z,12.63
2019-02-27T07:51:24.873Z,12.80
2019-02-27T07:53:54.547Z,15.33
2019-02-27T07:56:23.757Z,10.63
2019-02-27T07:58:52.946Z,12.67
2019-02-27T08:01:23.622Z,14.90
2019-02-27T08:03:53.071Z,9.13
2019-02-27T08:06:23.607Z,15.37
2019-02-27T08:08:56.984Z,13.60
2019-02-27T08:11:23.865Z,12.83
2019-02-27T08:13:53.054Z,13.57
2019-02-27T08:16:22.698Z,12.30
2019-02-27T08:18:51.963Z,14.23
2019-02-27T08:21:21.194Z,15.23
2019-02-27T08:23:50.386Z,14.87
2019-02-27T08:26:19.607Z,14.43
2019-02-27T08:28:48.885Z,14.57
2019-02-27T08:31:18.093Z,12.83
2019-02-27T08:33:47.282Z,13.87
2019-02-27T08:36:16.516Z,14.47
2019-02-27T08:38:45.727Z,12.17
2019-02-27T08:41:14.935Z,17.27
2019-02-27T08:43:44.143Z,12.90
2019-02-27T08:46:13.385Z,18.10
2019-02-27T08:48:42.557Z,13.67
2019-02-27T08:51:11.776Z,13.50
2019-02-27T08:53:40.963Z,12.70
2019-02-27T08:56:12.296Z,14.20
2019-02-27T08:58:41.082Z,12.33
2019-02-27T09:01:10.408Z,14.83
2019-02-27T09:03:39.607Z,18.03
2019-02-27T09:06:08.906Z,15.83
2019-02-27T09:08:38.112Z,16.93
2019-02-27T09:11:07.342Z,12.93
2019-02-27T09:13:36.558Z,14.68
2019-02-27T09:16:05.767Z,13.13
2019-02-27T09:18:36.533Z,13.53
2019-02-27T09:21:05.952Z,12.28
2019-02-27T09:23:35.147Z,13.00
2019-02-27T09:26:04.372Z,13.48
2019-02-27T09:28:33.567Z,12.47
2019-02-27T09:31:04.288Z,14.23
2019-02-27T09:33:38.674Z,12.60
2019-02-27T09:36:04.634Z,14.55
2019-02-27T09:38:33.820Z,9.55
2019-02-27T09:41:03.083Z,10.15
2019-02-27T09:43:32.445Z,13.65
2019-02-27T09:46:01.674Z,11.68
2019-02-27T09:48:31.113Z,10.93
2019-02-27T09:51:01.787Z,10.95
2019-02-27T09:53:30.986Z,10.38
2019-02-27T09:56:00.190Z,9.35
2019-02-27T09:58:29.406Z,7.45
2019-02-27T10:01:13.357Z,8.03
2019-02-27T10:03:42.707Z,7.17
2019-02-27T10:06:11.904Z,8.08
2019-02-27T10:08:41.088Z,6.70
2019-02-27T10:11:10.298Z,6.05
2019-02-27T10:13:39.537Z,6.45
2019-02-27T10:16:08.742Z,6.22
2019-02-27T10:18:37.910Z,5.87
2019-02-27T10:21:09.432Z,5.22
2019-02-27T10:23:38.019Z,5.85
2019-02-27T10:26:07.209Z,6.03
2019-02-27T10:28:39.739Z,5.10
2019-02-27T10:31:07.351Z,6.05
2019-02-27T10:33:36.801Z,5.65
2019-02-27T10:36:05.992Z,5.50
2019-02-27T10:38:40.254Z,5.17
2019-02-27T10:41:06.065Z,5.67
2019-02-27T10:43:35.263Z,4.30
2019-02-27T10:46:04.461Z,6.85
2019-02-27T10:48:33.650Z,4.30
2019-02-27T10:51:02.927Z,4.70
2019-02-27T10:53:32.137Z,5.42
2019-02-27T10:56:01.321Z,4.80
2019-02-27T10:58:30.509Z,5.95
2019-02-27T11:01:01.104Z,4.28
2019-02-27T11:03:30.606Z,4.20
2019-02-27T11:05:59.807Z,4.47
2019-02-27T11:08:29.687Z,4.75
2019-02-27T11:10:58.996Z,4.15
2019-02-27T11:13:28.158Z,7.03
2019-02-27T11:15:57.373Z,4.37
2019-02-27T11:18:26.521Z,4.35
2019-02-27T11:20:59.098Z,3.67
2019-02-27T11:23:26.598Z,4.40
2019-02-27T11:25:56.955Z,3.77
2019-02-27T11:28:26.865Z,3.40
2019-02-27T11:30:56.068Z,3.77
2019-02-27T11:33:26.136Z,5.03
2019-02-27T11:35:55.373Z,4.35
2019-02-27T11:38:25.389Z,3.15
2019-02-27T11:40:54.737Z,3.00
2019-02-27T11:43:23.913Z,3.33
2019-02-27T11:45:57.517Z,3.35
2019-02-27T11:48:24.104Z,3.85
2019-02-27T11:50:53.280Z,2.90
2019-02-27T11:53:22.502Z,3.58
2019-02-27T11:55:51.670Z,2.65
2019-02-27T11:58:20.942Z,2.80
2019-02-27T12:00:50.112Z,2.42
2019-02-27T12:03:19.319Z,4.03
2019-02-27T12:05:48.574Z,2.70
2019-02-27T12:08:17.778Z,2.85
2019-02-27T12:10:46.955Z,2.65
2019-02-27T12:13:16.150Z,2.95
2019-02-27T12:15:45.343Z,3.02
2019-02-27T12:18:14.545Z,3.95
2019-02-27T12:20:43.726Z,2.30
2019-02-27T12:23:12.960Z,3.02
2019-02-27T12:25:42.147Z,2.47
2019-02-27T12:28:11.349Z,3.40
2019-02-27T12:30:40.529Z,3.17
2019-02-27T12:33:09.739Z,4.05
2019-02-27T12:35:38.934Z,2.33
2019-02-27T12:38:08.569Z,2.77
2019-02-27T12:40:37.782Z,3.10
2019-02-27T12:43:06.971Z,3.33
2019-02-27T12:45:36.149Z,4.42
2019-02-27T12:48:05.353Z,2.85
2019-02-27T12:50:34.528Z,3.62
2019-02-27T12:53:03.729Z,1.95
2019-02-27T12:55:35.507Z,2.85
2019-02-27T12:58:03.802Z,3.87
2019-02-27T13:00:34.413Z,3.47
2019-02-27T13:03:08.452Z,2.83
2019-02-27T13:05:34.511Z,4.67
2019-02-27T13:08:03.748Z,4.60
2019-02-27T13:10:34.243Z,4.33
2019-02-27T13:13:03.633Z,3.50
2019-02-27T13:15:32.846Z,5.00
2019-02-27T13:18:02.066Z,3.90
2019-02-27T13:20:32.710Z,3.30
2019-02-27T13:23:05.186Z,5.23
2019-02-27T13:25:32.800Z,3.63
2019-02-27T13:28:02.015Z,3.60
2019-02-27T13:30:31.227Z,3.10
2019-02-27T13:33:01.277Z,3.80
2019-02-27T13:35:31.245Z,5.30
2019-02-27T13:38:00.425Z,5.07
2019-02-27T13:40:35.363Z,4.53
2019-02-27T13:43:01.711Z,2.73
2019-02-27T13:45:32.117Z,3.67
2019-02-27T13:48:04.843Z,3.53
2019-02-27T13:50:32.227Z,4.63
2019-02-27T13:53:01.421Z,3.33
2019-02-27T13:55:30.631Z,3.87
2019-02-27T13:58:03.393Z,4.43
2019-02-27T14:00:31.963Z,2.70
2019-02-27T14:03:01.146Z,5.33
2019-02-27T14:05:34.902Z,2.90
2019-02-27T14:08:01.346Z,2.40
2019-02-27T14:10:34.181Z,2.93
2019-02-27T14:13:03.367Z,3.53
2019-02-27T14:15:32.577Z,3.77
2019-02-27T14:18:01.814Z,2.87
2019-02-27T14:20:31.155Z,3.47
2019-02-27T14:23:00.421Z,2.10
2019-02-27T14:25:32.911Z,7.43
2019-02-27T14:28:01.965Z,4.03
2019-02-27T14:30:48.927Z,3.17
2019-02-27T14:33:19.328Z,2.63
2019-02-27T14:35:49.033Z,3.77
2019-02-27T14:38:18.224Z,4.67
2019-02-27T14:40:47.449Z,2.60
2019-02-27T14:43:16.639Z,3.80
2019-02-27T14:45:45.849Z,2.90
2019-02-27T14:48:15.057Z,4.70
2019-02-27T14:50:44.256Z,2.63
2019-02-27T14:53:16.597Z,5.37
2019-02-27T14:55:44.402Z,3.97
2019-02-27T14:58:13.626Z,4.07
2019-02-27T15:00:43.675Z,3.47
2019-02-27T15:03:12.931Z,4.30
2019-02-27T15:05:44.725Z,3.20
2019-02-27T15:08:13.029Z,4.50
2019-02-27T15:10:42.234Z,2.70
2019-02-27T15:13:11.416Z,4.10
2019-02-27T15:15:43.190Z,3.10
2019-02-27T15:18:11.521Z,4.07
2019-02-27T15:20:41.263Z,2.67
2019-02-27T15:23:10.436Z,4.07
2019-02-27T15:25:43.202Z,3.07
2019-02-27T15:28:10.532Z,5.27
2019-02-27T15:30:39.739Z,5.77
2019-02-27T15:33:08.924Z,3.30
2019-02-27T15:35:38.316Z,4.03
2019-02-27T15:38:11.433Z,6.53
2019-02-27T15:40:38.501Z,5.40
2019-02-27T15:43:11.262Z,4.30
2019-02-27T15:45:47.513Z,9.00
2019-02-27T15:48:09.479Z,4.17
2019-02-27T15:50:38.690Z,4.00
2019-02-27T15:53:07.894Z,4.17
2019-02-27T15:55:37.937Z,5.07
2019-02-27T15:58:07.134Z,7.23
2019-02-27T16:00:36.353Z,6.47
2019-02-27T16:03:10.650Z,3.07
2019-02-27T16:05:36.487Z,4.37
2019-02-27T16:08:05.770Z,5.77
2019-02-27T16:10:34.942Z,6.07
2019-02-27T16:13:04.148Z,6.97
2019-02-27T16:15:33.329Z,4.10
2019-02-27T16:18:04.759Z,4.83
2019-02-27T16:20:33.422Z,3.40
2019-02-27T16:23:05.089Z,3.60
2019-02-27T16:25:33.530Z,5.70
2019-02-27T16:28:02.824Z,3.80
2019-02-27T16:30:33.357Z,3.60
2019-02-27T16:33:02.577Z,6.80
2019-02-27T16:35:31.762Z,3.60
2019-02-27T16:38:01.040Z,5.77
2019-02-27T16:40:30.795Z,3.77
2019-02-27T16:42:59.997Z,7.23
2019-02-27T16:45:37.344Z,3.43
2019-02-27T16:48:06.804Z,5.70
2019-02-27T16:50:35.994Z,5.07
2019-02-27T16:53:05.204Z,6.63
2019-02-27T16:55:36.960Z,5.37
2019-02-27T16:58:05.308Z,4.63
2019-02-27T17:00:37.084Z,5.57
2019-02-27T17:03:06.289Z,2.97
2019-02-27T17:05:35.485Z,4.67
2019-02-27T17:08:04.706Z,6.53
2019-02-27T17:10:35.310Z,4.73
2019-02-27T17:13:04.595Z,4.37
2019-02-27T17:15:35.987Z,4.60
2019-02-27T17:18:04.709Z,6.70
2019-02-27T17:20:36.573Z,5.80
2019-02-27T17:23:10.473Z,6.43
2019-02-27T17:25:36.681Z,4.27
2019-02-27T17:28:05.891Z,3.30
2019-02-27T17:30:37.785Z,5.03
2019-02-27T17:33:07.298Z,5.87
2019-02-27T17:35:36.497Z,7.50
2019-02-27T17:38:05.695Z,9.20
2019-02-27T17:40:37.508Z,7.53
2019-02-27T17:43:06.842Z,9.47
2019-02-27T17:45:36.085Z,8.93
2019-02-27T17:48:05.298Z,7.63
2019-02-27T17:50:34.582Z,7.93
2019-02-27T17:53:03.795Z,6.23
2019-02-27T17:55:32.992Z,7.17
2019-02-27T17:58:02.193Z,5.77
2019-02-27T18:00:42.376Z,6.63
2019-02-27T18:03:11.588Z,6.93
2019-02-27T18:05:40.825Z,7.43
2019-02-27T18:08:10.033Z,7.07
2019-02-27T18:10:39.219Z,4.43
2019-02-27T18:13:08.458Z,5.47
2019-02-27T18:15:37.722Z,4.03
2019-02-27T18:18:09.113Z,6.67
2019-02-27T18:20:37.844Z,7.13
2019-02-27T18:23:07.051Z,8.13
2019-02-27T18:25:41.034Z,13.43
2019-02-27T18:28:07.160Z,16.07
2019-02-27T18:30:36.343Z,13.50
2019-02-27T18:33:05.557Z,12.63
2019-02-27T18:35:34.743Z,13.20
2019-02-27T18:38:03.962Z,12.93
2019-02-27T18:40:33.151Z,12.93
2019-02-27T18:43:02.357Z,9.47
2019-02-27T18:45:31.579Z,10.53
2019-02-27T18:48:00.777Z,9.80
2019-02-27T18:50:29.966Z,10.43
2019-02-27T18:52:59.188Z,9.13
2019-02-27T18:55:30.657Z,11.20
2019-02-27T18:57:59.278Z,13.33
2019-02-27T19:00:29.402Z,12.57
2019-02-27T19:03:10.618Z,11.33
2019-02-27T19:05:42.024Z,6.30
2019-02-27T19:08:10.720Z,5.33
2019-02-27T19:10:42.451Z,4.57
2019-02-27T19:13:10.962Z,5.10
2019-02-27T19:15:45.419Z,5.47
2019-02-27T19:18:11.120Z,6.10
2019-02-27T19:20:45.628Z,5.90
2019-02-27T19:23:17.731Z,7.40
2019-02-27T19:25:45.709Z,6.23
2019-02-27T19:28:14.970Z,8.53
2019-02-27T19:30:44.157Z,17.33
2019-02-27T19:33:13.360Z,16.73
2019-02-27T19:35:42.558Z,11.83
2019-02-27T19:38:12.910Z,8.83
2019-02-27T19:40:42.639Z,9.27
2019-02-27T19:43:11.857Z,8.13
2019-02-27T19:45:42.297Z,9.40
2019-02-27T19:48:11.860Z,8.40
2019-02-27T19:50:45.248Z,8.23
2019-02-27T19:53:11.969Z,7.57
2019-02-27T19:55:41.248Z,7.90
2019-02-27T19:58:10.455Z,7.97
2019-02-27T20:00:48.029Z,10.40
2019-02-27T20:03:10.592Z,6.63
2019-02-27T20:05:39.780Z,8.07
2019-02-27T20:08:10.914Z,8.17
2019-02-27T20:10:40.255Z,7.30
2019-02-27T20:13:09.458Z,8.73
2019-02-27T20:15:38.646Z,8.23
2019-02-27T20:18:08.864Z,10.23
2019-02-27T20:20:40.946Z,27.27
2019-02-27T20:23:09.298Z,37.27
2019-02-27T20:25:43.168Z,17.00
2019-02-27T20:28:09.398Z,11.43
2019-02-27T20:30:38.598Z,12.07
2019-02-27T20:33:07.833Z,11.40
2019-02-27T20:35:37.030Z,10.37
2019-02-27T20:38:06.248Z,10.23
2019-02-27T20:40:35.436Z,9.77
2019-02-27T20:43:04.644Z,8.13
2019-02-27T20:45:33.824Z,9.30
2019-02-27T20:48:03.121Z,7.23
2019-02-27T20:50:55.176Z,7.57
2019-02-27T20:53:24.619Z,8.30
2019-02-27T20:55:53.807Z,8.93
2019-02-27T20:58:23.059Z,7.23
2019-02-27T21:00:52.523Z,7.27
2019-02-27T21:03:26.683Z,10.27
2019-02-27T21:05:52.803Z,7.63
2019-02-27T21:08:22.082Z,6.40
2019-02-27T21:10:54.873Z,8.73
2019-02-27T21:13:22.158Z,8.77
2019-02-27T21:15:51.350Z,9.13
2019-02-27T21:18:20.588Z,12.67
2019-02-27T21:20:50.912Z,12.70
2019-02-27T21:23:20.179Z,10.40
2019-02-27T21:25:49.926Z,8.67
2019-02-27T21:28:21.316Z,10.33
2019-02-27T21:30:52.445Z,10.57
2019-02-27T21:33:21.090Z,9.63
2019-02-27T21:35:50.282Z,10.73
2019-02-27T21:38:19.486Z,9.87
2019-02-27T21:40:48.677Z,10.50
2019-02-27T21:43:17.894Z,10.63
2019-02-27T21:45:47.093Z,10.43
2019-02-27T21:48:16.341Z,10.07
2019-02-27T21:50:45.507Z,13.13
2019-02-27T21:53:14.729Z,10.97
2019-02-27T21:55:44.685Z,12.43
2019-02-27T21:58:20.382Z,13.10
2019-02-27T22:00:48.269Z,10.27
2019-02-27T22:03:16.427Z,12.57
2019-02-27T22:05:46.987Z,10.10
2019-02-27T22:08:16.204Z,13.63
2019-02-27T22:10:45.406Z,13.47
2019-02-27T22:13:14.631Z,13.00
2019-02-27T22:15:43.825Z,12.00
2019-02-27T22:18:13.026Z,12.10
2019-02-27T22:20:42.223Z,12.33
2019-02-27T22:23:12.618Z,11.30
2019-02-27T22:25:42.100Z,11.40
2019-02-27T22:28:11.310Z,13.23
2019-02-27T22:30:40.493Z,12.60
2019-02-27T22:33:09.688Z,11.33
2019-02-27T22:35:38.937Z,16.20
2019-02-27T22:38:08.121Z,14.33
2019-02-27T22:40:38.285Z,16.13
2019-02-27T22:43:08.305Z,15.73
2019-02-27T22:45:40.504Z,19.63
2019-02-27T22:48:08.401Z,16.10
2019-02-27T22:50:38.371Z,17.73
2019-02-27T22:53:08.513Z,17.60
2019-02-27T22:55:37.730Z,13.73
2019-02-27T22:58:06.936Z,16.03
2019-02-27T23:00:53.063Z,17.10
2019-02-27T23:03:31.752Z,15.83
2019-02-27T23:06:00.948Z,16.17
2019-02-27T23:08:30.135Z,18.67
2019-02-27T23:11:02.910Z,17.10
2019-02-27T23:13:30.364Z,14.80
2019-02-27T23:15:59.585Z,13.97
2019-02-27T23:18:28.770Z,14.23
2019-02-27T23:20:58.004Z,14.77
2019-02-27T23:23:27.196Z,14.63
2019-02-27T23:25:56.408Z,13.40
2019-02-27T23:28:25.602Z,13.57
2019-02-27T23:30:54.806Z,15.13
2019-02-27T23:33:24.732Z,13.90
2019-02-27T23:35:54.082Z,13.13
2019-02-27T23:38:23.398Z,14.97
2019-02-27T23:40:52.603Z,13.67
2019-02-27T23:43:21.852Z,13.40
2019-02-27T23:45:51.063Z,11.23
2019-02-27T23:48:20.260Z,11.97
2019-02-27T23:50:49.460Z,12.90
2019-02-27T23:53:18.658Z,13.90
2019-02-27T23:55:47.865Z,13.53
2019-02-27T23:58:17.046Z,14.50
